Terminal Aerodrome Forecast
Issued by NWS Springfield, MO

Current Version | Previous Version | Text Only | Print | Product List | Glossary On
Versions: 1 2 3 4 5 6 7 8 9 10 11 12 13 14 15 16 17 18
000
FTUS43 KSGF 261037 AAB
TAFSGF
TAF AMD
KSGF 261037Z 2611/2706 08004KT P6SM VCTS OVC070CB
     FM261500 15006KT P6SM OVC080
     FM261800 19007KT P6SM BKN250
     FM270000 VRB04KT P6SM VCSH BKN070=

USA.gov is the U.S. government's official web portal to all federal, state and local government web resources and services.